Time;durP1;ratioP1;P1;durP2;ratioP2;P2;SDS_P1;SDS_P2;PMS_P1;PMS_P2;Temp;Humidity;BMP_temperature;BMP_pressure;BME280_temperature;BME280_humidity;BME280_pressure;Samples;Min_cycle;Max_cycle;Signal;HPM_P1;HPM_P2
2021/10/28 00:14:40;;;;;;;12.90;7.28;;;11.20;81.70;;;;;;4968951;28;20061;-84
2021/10/28 00:17:12;;;;;;;10.43;7.03;;;11.20;81.70;;;;;;4965836;28;20567;-85
2021/10/28 00:19:41;;;;;;;11.73;7.45;;;11.20;81.70;;;;;;4964648;28;20097;-85
2021/10/28 00:22:09;;;;;;;12.38;7.60;;;11.10;81.80;;;;;;4970902;28;20090;-85
2021/10/28 00:24:36;;;;;;;14.25;6.63;;;11.10;81.80;;;;;;4967134;28;20047;-85
2021/10/28 00:27:04;;;;;;;11.40;7.55;;;11.10;81.70;;;;;;4970688;28;20051;-85
2021/10/28 00:29:31;;;;;;;8.80;7.07;;;11.10;81.80;;;;;;4968344;28;20051;-84
2021/10/28 00:31:59;;;;;;;9.32;7.30;;;11.10;81.70;;;;;;4966063;28;20050;-85
2021/10/28 00:34:26;;;;;;;11.70;7.15;;;11.10;81.70;;;;;;4966429;28;20062;-84
2021/10/28 00:36:53;;;;;;;10.55;6.82;;;11.10;81.70;;;;;;4966214;28;20039;-85
2021/10/28 00:39:20;;;;;;;9.50;6.82;;;11.00;81.80;;;;;;4969376;28;20050;-86
2021/10/28 00:41:49;;;;;;;12.15;7.13;;;11.00;81.80;;;;;;4969143;28;20447;-87
2021/10/28 00:44:16;;;;;;;12.63;7.10;;;11.00;81.70;;;;;;4967860;28;20086;-86
2021/10/28 00:46:43;;;;;;;9.10;6.45;;;11.00;81.70;;;;;;4965961;28;20046;-86
2021/10/28 00:49:12;;;;;;;11.23;7.05;;;11.00;81.70;;;;;;4966230;28;20102;-87
2021/10/28 00:51:41;;;;;;;10.07;6.72;;;10.90;81.70;;;;;;4966529;28;20507;-85
2021/10/28 00:54:13;;;;;;;12.60;7.40;;;10.90;81.70;;;;;;4955394;28;20459;-85
2021/10/28 00:56:43;;;;;;;13.32;6.55;;;10.90;81.70;;;;;;4968501;28;20051;-85
2021/10/28 00:59:11;;;;;;;8.68;6.43;;;10.90;81.70;;;;;;4952762;28;20063;-84
2021/10/28 01:01:38;;;;;;;9.85;7.00;;;10.90;81.70;;;;;;4962375;28;20082;-85
2021/10/28 01:04:06;;;;;;;12.57;6.85;;;10.90;81.70;;;;;;4966002;28;20511;-85
2021/10/28 01:06:34;;;;;;;12.30;6.95;;;10.90;81.70;;;;;;4967044;28;20043;-85
2021/10/28 01:09:03;;;;;;;11.75;6.68;;;10.90;81.70;;;;;;4969932;28;20071;-85
2021/10/28 01:11:30;;;;;;;11.15;7.13;;;10.90;81.70;;;;;;4967759;28;20471;-84
2021/10/28 01:13:58;;;;;;;12.95;7.15;;;10.80;81.70;;;;;;4965957;28;20507;-85
2021/10/28 01:16:26;;;;;;;10.68;6.32;;;10.80;81.70;;;;;;4963997;28;20467;-85
2021/10/28 01:18:54;;;;;;;10.07;7.30;;;10.80;81.70;;;;;;4965946;28;20079;-85
2021/10/28 01:21:21;;;;;;;11.68;6.45;;;10.80;81.70;;;;;;4968678;28;20565;-87
2021/10/28 01:23:49;;;;;;;10.90;7.10;;;10.80;81.70;;;;;;4968670;28;20100;-84
2021/10/28 01:26:17;;;;;;;10.82;7.30;;;10.70;81.70;;;;;;4967417;28;20512;-87
2021/10/28 01:28:59;;;;;;;10.27;6.85;;;10.70;81.70;;;;;;4965888;28;20047;-87
2021/10/28 01:31:29;;;;;;;10.38;7.40;;;10.70;81.70;;;;;;4965671;28;20146;-86
2021/10/28 01:33:58;;;;;;;12.70;7.70;;;10.70;81.70;;;;;;4965725;28;20497;-85
2021/10/28 01:36:26;;;;;;;12.48;7.68;;;10.70;81.70;;;;;;4966216;28;20051;-86
2021/10/28 01:38:55;;;;;;;11.32;7.50;;;10.70;81.70;;;;;;4968830;28;20047;-86
2021/10/28 01:41:22;;;;;;;11.25;7.07;;;10.60;81.70;;;;;;4967575;28;20061;-85
2021/10/28 01:43:49;;;;;;;13.70;7.47;;;10.60;81.80;;;;;;4968355;28;20535;-85
2021/10/28 01:46:16;;;;;;;9.68;6.50;;;10.60;81.80;;;;;;4968976;28;20467;-85
2021/10/28 01:48:44;;;;;;;12.35;7.80;;;10.60;81.80;;;;;;4969548;28;20047;-85
2021/10/28 01:51:11;;;;;;;11.15;7.07;;;10.60;81.80;;;;;;4973388;28;20514;-85
2021/10/28 01:53:40;;;;;;;11.05;7.18;;;10.60;81.80;;;;;;4971872;28;20051;-85
2021/10/28 01:56:09;;;;;;;11.43;7.25;;;10.60;81.80;;;;;;4968705;28;20054;-85
2021/10/28 01:58:36;;;;;;;9.85;7.18;;;10.60;81.90;;;;;;4969300;28;20046;-85
2021/10/28 02:01:05;;;;;;;11.23;6.90;;;10.60;81.90;;;;;;4968877;28;20047;-85
2021/10/28 02:03:33;;;;;;;9.40;7.15;;;10.60;81.90;;;;;;4970204;28;20134;-85
2021/10/28 02:06:01;;;;;;;13.07;7.32;;;10.60;81.90;;;;;;4971703;28;20523;-85
2021/10/28 02:08:28;;;;;;;10.40;7.07;;;10.60;81.90;;;;;;4971029;28;20059;-84
2021/10/28 02:10:55;;;;;;;12.23;7.22;;;10.50;81.90;;;;;;4969101;28;20042;-85
2021/10/28 02:13:22;;;;;;;12.73;7.47;;;10.50;81.90;;;;;;4968468;28;20110;-85
2021/10/28 02:15:49;;;;;;;10.68;7.15;;;10.50;81.90;;;;;;4967247;28;20043;-85
2021/10/28 02:18:16;;;;;;;9.88;7.10;;;10.50;81.90;;;;;;4973476;28;20105;-86
2021/10/28 02:20:43;;;;;;;8.77;6.40;;;10.50;81.90;;;;;;4958674;28;20051;-85
2021/10/28 02:23:10;;;;;;;10.20;6.38;;;10.50;81.90;;;;;;4961861;28;20059;-85
2021/10/28 02:25:37;;;;;;;11.48;7.05;;;10.50;81.90;;;;;;4964046;28;20050;-85
2021/10/28 02:28:04;;;;;;;10.48;6.68;;;10.50;81.90;;;;;;4968577;28;20046;-85
2021/10/28 02:30:32;;;;;;;9.48;6.68;;;10.50;81.90;;;;;;4973133;28;20411;-87
2021/10/28 02:32:59;;;;;;;11.80;7.15;;;10.50;81.90;;;;;;4957075;28;20051;-86
2021/10/28 02:35:26;;;;;;;9.98;6.68;;;10.50;81.90;;;;;;4969704;28;20054;-86
2021/10/28 02:37:53;;;;;;;9.40;7.18;;;10.50;81.90;;;;;;4968578;28;20062;-86
2021/10/28 02:40:20;;;;;;;10.30;6.80;;;10.40;81.90;;;;;;4968578;28;20110;-85
2021/10/28 02:42:47;;;;;;;10.07;6.63;;;10.40;81.90;;;;;;4968359;28;20106;-86
2021/10/28 02:45:16;;;;;;;8.57;6.00;;;10.40;81.80;;;;;;4971786;28;20046;-85
2021/10/28 02:47:43;;;;;;;11.52;6.20;;;10.40;81.80;;;;;;4971235;28;20061;-86
2021/10/28 02:50:10;;;;;;;10.98;6.65;;;10.40;81.80;;;;;;4961454;28;20581;-85
2021/10/28 02:52:37;;;;;;;9.40;6.63;;;10.40;81.80;;;;;;4963591;28;20070;-85
2021/10/28 02:55:04;;;;;;;8.68;5.90;;;10.40;81.80;;;;;;4965292;28;20090;-85
2021/10/28 02:57:31;;;;;;;8.88;6.38;;;10.40;81.80;;;;;;4969098;28;20039;-85
2021/10/28 02:59:58;;;;;;;10.95;6.70;;;10.40;81.70;;;;;;4971787;28;20601;-85
2021/10/28 03:02:25;;;;;;;11.38;6.13;;;10.40;81.70;;;;;;4970035;28;20054;-85
2021/10/28 03:04:54;;;;;;;10.70;6.40;;;10.40;81.70;;;;;;4968044;28;20070;-84
2021/10/28 03:07:21;;;;;;;12.73;7.10;;;10.40;81.70;;;;;;4968094;28;20415;-86
2021/10/28 03:09:48;;;;;;;9.35;5.90;;;10.30;81.70;;;;;;4968035;28;20054;-87
2021/10/28 03:12:15;;;;;;;9.38;6.25;;;10.30;81.70;;;;;;4969204;28;20039;-85
2021/10/28 03:14:51;;;;;;;11.60;6.65;;;10.30;81.70;;;;;;4970650;28;20051;-87
2021/10/28 03:27:38;;;;;;;10.88;6.40;;;10.30;81.70;;;;;;4967850;28;20044;-85
2021/10/28 03:30:08;;;;;;;12.48;7.07;;;10.20;81.80;;;;;;4956486;28;20504;-88
2021/10/28 03:32:36;;;;;;;13.10;7.05;;;10.20;81.80;;;;;;4970009;28;20113;-86
2021/10/28 03:35:06;;;;;;;9.13;6.90;;;10.20;81.80;;;;;;4967728;28;20058;-86
2021/10/28 03:37:48;;;;;;;11.85;8.13;;;10.20;81.90;;;;;;4967529;28;20047;-86
2021/10/28 03:43:36;;;;;;;10.18;6.53;;;10.20;81.90;;;;;;4967454;28;20102;-86
2021/10/28 04:20:44;;;;;;;13.82;9.50;;;10.10;82.70;;;;;;4950844;29;20055;-87
2021/10/28 04:29:03;;;;;;;12.10;8.88;;;10.10;82.80;;;;;;4912075;29;20060;-86
2021/10/28 04:31:32;;;;;;;15.18;9.50;;;10.10;82.90;;;;;;4912037;29;20440;-85
2021/10/28 04:34:04;;;;;;;15.68;9.38;;;10.10;82.90;;;;;;4912017;29;20052;-86
2021/10/28 04:36:31;;;;;;;14.88;9.23;;;10.10;82.90;;;;;;4911985;29;20047;-85
2021/10/28 04:38:59;;;;;;;11.98;9.25;;;10.10;82.90;;;;;;4911687;29;20540;-86
2021/10/28 04:41:26;;;;;;;13.65;10.18;;;10.10;83.00;;;;;;4912632;29;20060;-86
2021/10/28 04:43:59;;;;;;;17.75;10.05;;;10.10;82.90;;;;;;4911784;29;20424;-86
2021/10/28 04:46:26;;;;;;;14.45;9.32;;;10.10;82.90;;;;;;4911729;29;20119;-86
2021/10/28 04:48:53;;;;;;;12.65;9.23;;;10.10;82.90;;;;;;4911770;29;20645;-87
2021/10/28 04:51:20;;;;;;;16.55;9.52;;;10.10;82.90;;;;;;4911737;29;20584;-86
2021/10/28 04:53:47;;;;;;;13.25;8.93;;;10.10;82.90;;;;;;4911496;29;20166;-86
2021/10/28 04:56:14;;;;;;;12.98;8.77;;;10.10;82.90;;;;;;4912196;29;20052;-87
2021/10/28 04:58:42;;;;;;;14.45;8.95;;;10.00;82.90;;;;;;4928090;29;20052;-86
2021/10/28 05:01:09;;;;;;;12.48;9.05;;;10.10;82.90;;;;;;4926892;29;20052;-87
2021/10/28 05:03:36;;;;;;;14.63;9.40;;;10.00;82.90;;;;;;4943176;28;20043;-88
2021/10/28 05:06:03;;;;;;;14.07;9.15;;;10.00;82.90;;;;;;4970299;28;20113;-88
2021/10/28 05:08:34;;;;;;;11.00;8.25;;;10.00;82.80;;;;;;4955978;28;20416;-87
2021/10/28 05:11:01;;;;;;;12.70;8.90;;;10.00;82.80;;;;;;4965917;28;20051;-87
2021/10/28 05:13:28;;;;;;;17.17;8.95;;;10.00;82.80;;;;;;4966084;28;20047;-87
2021/10/28 05:15:56;;;;;;;13.27;8.95;;;10.00;82.80;;;;;;4965967;28;20110;-86
2021/10/28 05:18:25;;;;;;;14.25;9.43;;;10.00;82.70;;;;;;4970529;28;20547;-86
2021/10/28 05:20:53;;;;;;;11.07;8.63;;;9.90;82.70;;;;;;4972912;28;20069;-87
2021/10/28 05:23:21;;;;;;;10.75;8.10;;;9.90;82.70;;;;;;4971361;28;20047;-86
2021/10/28 05:25:49;;;;;;;14.10;8.80;;;9.90;82.70;;;;;;4969964;28;20057;-86
2021/10/28 05:28:17;;;;;;;12.05;8.57;;;9.90;82.70;;;;;;4968740;28;20458;-86
2021/10/28 05:30:44;;;;;;;11.60;8.63;;;9.90;82.70;;;;;;4969775;28;20110;-85
2021/10/28 05:33:14;;;;;;;9.77;8.50;;;9.90;82.70;;;;;;4973129;28;20050;-86
2021/10/28 05:35:42;;;;;;;11.50;8.20;;;9.90;82.70;;;;;;4972090;28;20062;-85
2021/10/28 05:38:09;;;;;;;12.80;8.52;;;9.90;82.60;;;;;;4956267;28;20106;-85
2021/10/28 05:40:35;;;;;;;11.50;9.00;;;9.90;82.60;;;;;;4980974;28;20057;-85
2021/10/28 05:43:03;;;;;;;13.43;8.45;;;9.90;82.60;;;;;;4969546;28;20042;-87
2021/10/28 05:45:32;;;;;;;13.50;8.20;;;9.90;82.60;;;;;;4970884;28;20125;-86
2021/10/28 05:47:59;;;;;;;13.57;8.80;;;9.90;82.60;;;;;;4972639;28;20054;-86
2021/10/28 05:50:27;;;;;;;13.48;8.32;;;9.90;82.60;;;;;;4970622;28;20059;-86
2021/10/28 05:52:57;;;;;;;11.57;8.48;;;9.90;82.60;;;;;;4969062;28;20047;-86
2021/10/28 05:55:25;;;;;;;12.68;8.82;;;9.90;82.60;;;;;;4969440;28;20054;-88
2021/10/28 05:57:53;;;;;;;13.18;8.10;;;9.80;82.50;;;;;;4970445;28;20515;-88
2021/10/28 06:00:22;;;;;;;12.85;8.57;;;9.80;82.50;;;;;;4963486;28;20054;-87
2021/10/28 06:02:49;;;;;;;13.15;9.23;;;9.80;82.50;;;;;;4972457;28;20046;-87
2021/10/28 06:05:16;;;;;;;15.45;8.63;;;9.80;82.50;;;;;;4961562;28;20047;-87
2021/10/28 06:07:43;;;;;;;14.20;8.63;;;9.70;82.50;;;;;;4965727;28;20427;-86
2021/10/28 06:10:12;;;;;;;12.65;8.63;;;9.80;82.50;;;;;;4968093;28;20066;-87
2021/10/28 06:12:43;;;;;;;10.52;9.13;;;9.70;82.40;;;;;;4970261;28;20101;-87
2021/10/28 06:15:13;;;;;;;11.00;8.27;;;9.70;82.40;;;;;;4959182;28;20062;-87
2021/10/28 06:20:34;;;;;;;14.27;8.40;;;9.70;82.40;;;;;;4971532;28;20106;-87
2021/10/28 06:23:01;;;;;;;12.43;8.23;;;9.70;82.40;;;;;;4970005;28;20047;-87
2021/10/28 06:25:28;;;;;;;14.40;8.43;;;9.70;82.40;;;;;;4973915;28;20535;-86
2021/10/28 06:27:55;;;;;;;10.45;8.25;;;9.60;82.40;;;;;;4974023;28;20054;-86
2021/10/28 06:30:23;;;;;;;11.77;8.55;;;9.60;82.30;;;;;;4972248;28;20065;-88
2021/10/28 06:33:12;;;;;;;11.15;8.80;;;9.60;82.30;;;;;;4972480;28;20450;-86
2021/10/28 06:35:42;;;;;;;16.80;8.05;;;9.60;82.30;;;;;;4971701;28;20046;-88
2021/10/28 06:38:09;;;;;;;11.27;8.27;;;9.60;82.30;;;;;;4961756;28;20055;-88
2021/10/28 06:40:37;;;;;;;13.55;9.10;;;9.60;82.20;;;;;;4965971;28;20059;-87
2021/10/28 06:43:04;;;;;;;13.77;9.02;;;9.50;82.30;;;;;;4970857;28;20043;-87
2021/10/28 06:45:33;;;;;;;15.10;8.90;;;9.50;82.20;;;;;;4956766;28;20528;-87
2021/10/28 06:48:01;;;;;;;13.30;9.05;;;9.50;82.20;;;;;;4957476;28;20051;-87
2021/10/28 06:50:33;;;;;;;12.30;9.05;;;9.50;82.20;;;;;;4959373;28;20114;-86
2021/10/28 06:53:12;;;;;;;11.85;9.57;;;9.50;82.30;;;;;;4957813;28;20103;-87
2021/10/28 06:55:50;;;;;;;16.77;9.48;;;9.50;82.30;;;;;;4964594;28;20105;-86
2021/10/28 07:03:49;;;;;;;13.65;9.13;;;9.40;82.30;;;;;;4969143;28;20422;-87
2021/10/28 07:06:20;;;;;;;12.75;9.85;;;9.40;82.30;;;;;;4971014;28;20043;-87
2021/10/28 07:08:52;;;;;;;15.88;10.20;;;9.40;82.40;;;;;;4971893;28;20063;-87
2021/10/28 07:11:25;;;;;;;11.80;9.27;;;9.40;82.40;;;;;;4960906;28;20063;-87
2021/10/28 07:13:54;;;;;;;13.93;9.75;;;9.40;82.40;;;;;;4956677;28;20047;-87
2021/10/28 07:16:27;;;;;;;14.52;10.13;;;9.40;82.40;;;;;;4962274;28;20098;-87
2021/10/28 07:19:07;;;;;;;16.02;10.05;;;9.40;82.40;;;;;;4968739;28;20051;-86
2021/10/28 07:59:25;;;;;;;15.57;10.50;;;9.30;83.00;;;;;;4968803;28;20074;-89
2021/10/28 08:15:44;;;;;;;13.70;10.85;;;9.40;83.30;;;;;;4968142;28;20575;-89
2021/10/28 08:31:08;;;;;;;16.95;11.23;;;9.60;83.50;;;;;;4956451;28;20047;-86
2021/10/28 08:33:35;;;;;;;21.30;12.40;;;9.60;83.60;;;;;;4968335;28;20065;-85
2021/10/28 08:36:10;;;;;;;15.68;11.43;;;9.70;83.70;;;;;;4953531;28;20535;-85
2021/10/28 08:38:39;;;;;;;15.40;12.40;;;9.70;83.80;;;;;;4952795;28;20047;-85
2021/10/28 08:41:09;;;;;;;18.27;13.13;;;9.80;83.80;;;;;;4957768;28;20449;-85
2021/10/28 08:43:40;;;;;;;17.73;12.77;;;9.80;83.90;;;;;;4956868;28;20102;-84
2021/10/28 08:46:08;;;;;;;16.48;12.93;;;9.90;84.00;;;;;;4956718;28;20098;-84
2021/10/28 08:48:39;;;;;;;14.32;11.93;;;9.90;84.10;;;;;;4956644;28;20436;-84
2021/10/28 08:56:25;;;;;;;20.33;13.25;;;10.00;84.20;;;;;;4956685;28;20058;-84
2021/10/28 09:19:32;;;;;;;22.77;13.52;;;10.20;84.30;;;;;;4957823;28;20066;-83
2021/10/28 09:51:53;;;;;;;16.25;12.20;;;11.80;83.40;;;;;;4967485;28;20050;-84
2021/10/28 10:00:15;;;;;;;17.02;11.38;;;12.20;82.80;;;;;;4953358;28;20051;-85
2021/10/28 10:02:53;;;;;;;14.57;10.48;;;12.40;82.50;;;;;;4955731;28;20407;-84
2021/10/28 10:05:23;;;;;;;13.38;10.40;;;12.50;82.30;;;;;;4960896;28;20135;-84
2021/10/28 10:07:54;;;;;;;13.25;9.80;;;12.60;82.10;;;;;;4961056;28;20048;-85
2021/10/28 10:10:27;;;;;;;12.82;9.48;;;12.70;81.80;;;;;;4963780;28;20081;-85
2021/10/28 10:12:56;;;;;;;11.65;9.32;;;12.90;81.60;;;;;;4969395;28;20039;-85
2021/10/28 10:15:23;;;;;;;13.38;8.85;;;12.90;81.30;;;;;;4958857;28;20047;-85
2021/10/28 10:18:00;;;;;;;10.52;9.10;;;13.10;81.10;;;;;;4958451;28;20466;-84
2021/10/28 12:22:17;;;;;;;10.82;5.78;;;15.70;75.80;;;;;;4958558;28;20054;-84
2021/10/28 12:25:26;;;;;;;9.77;5.75;;;15.70;75.70;;;;;;4958183;28;20097;-85
2021/10/28 12:45:36;;;;;;;8.10;4.95;;;15.90;74.50;;;;;;4955806;28;20066;-84
2021/10/28 12:51:42;;;;;;;8.65;4.68;;;16.00;74.30;;;;;;4969706;28;20420;-86
2021/10/28 12:57:08;;;;;;;9.32;5.38;;;16.20;74.20;;;;;;4963494;28;20055;-85
2021/10/28 13:48:55;;;;;;;8.27;4.85;;;16.80;71.80;;;;;;4960381;28;20039;-89
2021/10/28 14:24:07;;;;;;;12.25;4.47;;;16.80;70.60;;;;;;4949560;29;20067;-87
2021/10/28 15:00:37;;;;;;;12.05;5.25;;;16.30;71.00;;;;;;4950155;28;20504;-88
2021/10/28 15:30:15;;;;;;;10.48;5.22;;;16.00;71.60;;;;;;4936821;29;20419;-86
2021/10/28 15:40:49;;;;;;;12.13;5.90;;;15.90;71.90;;;;;;4887065;29;20063;-85
2021/10/28 15:57:09;;;;;;;10.88;5.40;;;15.60;72.60;;;;;;4892637;29;20181;-85
2021/10/28 16:21:55;;;;;;;10.40;5.97;;;15.30;73.40;;;;;;4931685;29;20048;-85
2021/10/28 16:24:28;;;;;;;9.18;5.82;;;15.20;73.40;;;;;;4931483;29;20048;-85
2021/10/28 16:26:56;;;;;;;12.43;5.67;;;15.20;73.40;;;;;;4952563;28;20500;-85
2021/10/28 16:29:24;;;;;;;13.10;5.65;;;15.10;73.50;;;;;;4958130;28;20098;-85
2021/10/28 16:31:52;;;;;;;13.90;5.88;;;15.10;73.50;;;;;;4959947;28;20050;-85
2021/10/28 16:34:24;;;;;;;13.82;6.40;;;15.00;73.60;;;;;;4958632;28;20058;-86
2021/10/28 16:36:52;;;;;;;10.57;6.18;;;15.00;73.70;;;;;;4960696;28;20431;-86
2021/10/28 16:39:20;;;;;;;12.75;6.53;;;14.90;73.70;;;;;;4970139;28;20062;-86
2021/10/28 16:41:51;;;;;;;21.50;6.03;;;14.90;73.80;;;;;;4956177;28;20102;-85
2021/10/28 16:44:19;;;;;;;9.77;6.00;;;14.90;73.90;;;;;;4957515;28;20055;-85
2021/10/28 16:46:47;;;;;;;11.23;7.40;;;14.90;73.90;;;;;;4958564;28;20055;-85
2021/10/28 16:49:16;;;;;;;15.55;6.43;;;14.80;74.00;;;;;;4958375;28;20110;-84
2021/10/28 16:51:44;;;;;;;13.52;6.00;;;14.70;74.00;;;;;;4959737;28;20043;-85
2021/10/28 16:54:11;;;;;;;12.40;5.88;;;14.70;74.10;;;;;;4954818;28;20054;-86
2021/10/28 16:56:38;;;;;;;11.63;5.93;;;14.60;74.20;;;;;;4957812;28;20476;-85
2021/10/28 16:59:05;;;;;;;16.05;6.72;;;14.60;74.20;;;;;;4959330;28;20424;-87
2021/10/28 17:01:32;;;;;;;11.93;6.07;;;14.60;74.30;;;;;;4958328;28;20508;-84
2021/10/28 17:04:02;;;;;;;8.65;6.05;;;14.50;74.40;;;;;;4958122;28;20050;-86
2021/10/28 17:06:29;;;;;;;11.23;6.03;;;14.40;74.40;;;;;;4956648;28;20040;-85
2021/10/28 17:08:57;;;;;;;11.07;5.72;;;14.40;74.60;;;;;;4955333;28;20047;-86
2021/10/28 17:11:28;;;;;;;10.82;6.20;;;14.40;74.60;;;;;;4958188;28;20062;-87
2021/10/28 17:13:56;;;;;;;10.43;6.05;;;14.40;74.70;;;;;;4956484;28;20500;-85
2021/10/28 17:16:24;;;;;;;11.30;6.05;;;14.40;74.80;;;;;;4957647;28;20051;-86
2021/10/28 17:18:51;;;;;;;12.00;6.13;;;14.30;74.80;;;;;;4957952;28;20057;-86
2021/10/28 17:21:18;;;;;;;10.93;6.18;;;14.20;74.90;;;;;;4953585;28;20459;-85
2021/10/28 17:23:49;;;;;;;9.35;6.10;;;14.20;75.00;;;;;;4969084;28;20051;-85
2021/10/28 17:26:17;;;;;;;14.80;6.57;;;14.20;75.10;;;;;;4959454;28;20099;-86
2021/10/28 17:28:44;;;;;;;10.55;5.55;;;14.20;75.10;;;;;;4957288;28;20396;-86
2021/10/28 17:31:12;;;;;;;8.73;5.38;;;14.10;75.10;;;;;;4958336;28;20047;-85
2021/10/28 17:33:39;;;;;;;10.43;5.65;;;14.10;75.20;;;;;;4957749;28;20051;-86
2021/10/28 17:36:06;;;;;;;9.68;5.82;;;14.00;75.20;;;;;;4953395;28;20093;-86
2021/10/28 17:38:33;;;;;;;18.17;4.93;;;14.00;75.20;;;;;;4968305;28;20578;-86
2021/10/28 17:41:04;;;;;;;8.02;5.00;;;13.90;75.20;;;;;;4958509;28;20055;-87
2021/10/28 17:43:48;;;;;;;8.75;4.72;;;13.90;75.20;;;;;;4957452;28;20583;-86
2021/10/28 17:46:15;;;;;;;9.85;4.97;;;13.90;75.20;;;;;;4958956;28;20094;-86
2021/10/28 17:48:43;;;;;;;8.20;5.18;;;13.90;75.20;;;;;;4957847;28;20055;-87
2021/10/28 17:51:10;;;;;;;9.90;5.18;;;13.90;75.10;;;;;;4953448;28;20046;-86
2021/10/28 17:53:37;;;;;;;9.63;4.90;;;13.90;75.10;;;;;;4969008;28;20070;-87
2021/10/28 17:56:04;;;;;;;12.15;5.25;;;13.90;75.10;;;;;;4957693;28;20465;-87
2021/10/28 17:58:32;;;;;;;11.10;5.20;;;13.90;75.00;;;;;;4957226;28;20530;-87
2021/10/28 18:00:58;;;;;;;10.02;5.10;;;13.90;75.00;;;;;;4958908;28;20043;-85
2021/10/28 18:03:26;;;;;;;9.27;5.70;;;13.80;75.00;;;;;;4955794;28;20098;-84
2021/10/28 18:05:53;;;;;;;9.98;5.13;;;13.90;75.00;;;;;;4954982;28;20460;-85
2021/10/28 18:08:20;;;;;;;13.23;5.70;;;13.80;75.00;;;;;;4957640;28;20468;-85
2021/10/28 18:10:47;;;;;;;12.50;5.55;;;13.80;74.90;;;;;;4957360;28;20055;-85
2021/10/28 18:13:17;;;;;;;8.02;5.22;;;13.80;74.90;;;;;;4957160;28;20054;-85
2021/10/28 18:15:46;;;;;;;13.60;5.13;;;13.70;74.90;;;;;;4958851;28;20051;-85
2021/10/28 18:18:13;;;;;;;13.30;5.25;;;13.70;74.90;;;;;;4953370;28;20043;-86
2021/10/28 18:20:57;;;;;;;9.40;5.80;;;13.70;74.90;;;;;;4952951;28;20574;-87
2021/10/28 18:23:31;;;;;;;12.85;5.60;;;13.70;74.90;;;;;;4957600;28;20051;-88
2021/10/28 18:25:59;;;;;;;9.75;5.47;;;13.70;74.90;;;;;;4961224;28;20051;-86
2021/10/28 18:28:26;;;;;;;9.23;5.50;;;13.70;74.90;;;;;;4960986;28;20051;-86
2021/10/28 18:30:53;;;;;;;10.93;5.60;;;13.70;74.90;;;;;;4962377;28;20054;-84
2021/10/28 18:33:21;;;;;;;9.35;5.80;;;13.70;74.90;;;;;;4957983;28;20063;-86
2021/10/28 18:35:48;;;;;;;8.40;5.32;;;13.70;74.90;;;;;;4958480;28;20047;-87
2021/10/28 18:38:15;;;;;;;10.90;5.50;;;13.60;74.90;;;;;;4973250;28;20121;-86
2021/10/28 18:40:42;;;;;;;8.25;4.85;;;13.60;74.90;;;;;;4963372;28;20055;-86
2021/10/28 18:43:09;;;;;;;9.15;5.50;;;13.60;74.90;;;;;;4960464;28;20054;-86
2021/10/28 18:45:36;;;;;;;12.45;5.82;;;13.60;75.00;;;;;;4959253;28;20109;-85
2021/10/28 18:48:04;;;;;;;11.57;5.50;;;13.60;74.90;;;;;;4957608;28;20050;-85
2021/10/28 18:50:31;;;;;;;10.55;5.30;;;13.60;75.00;;;;;;4975353;28;20129;-85
2021/10/28 18:52:59;;;;;;;7.63;5.15;;;13.50;75.00;;;;;;4961266;28;20055;-85
2021/10/28 18:55:26;;;;;;;8.55;5.50;;;13.50;75.00;;;;;;4959889;28;20570;-85
2021/10/28 18:57:54;;;;;;;13.25;5.30;;;13.50;75.00;;;;;;4959807;28;20059;-85
2021/10/28 19:00:21;;;;;;;7.95;5.13;;;13.50;75.10;;;;;;4957233;28;20602;-86
2021/10/28 19:02:48;;;;;;;8.52;5.40;;;13.40;75.10;;;;;;4958121;28;20051;-86
2021/10/28 19:05:15;;;;;;;8.77;4.95;;;13.50;75.10;;;;;;4960206;28;20047;-86
2021/10/28 19:07:45;;;;;;;8.18;4.95;;;13.40;75.10;;;;;;4960430;28;20051;-86
2021/10/28 19:10:12;;;;;;;10.02;5.47;;;13.40;75.20;;;;;;4960045;28;20054;-85
2021/10/28 19:12:43;;;;;;;8.63;5.05;;;13.40;75.20;;;;;;4959317;28;20050;-85
2021/10/28 19:15:11;;;;;;;12.63;6.00;;;13.40;75.20;;;;;;4956501;28;20122;-86
2021/10/28 19:17:39;;;;;;;8.57;5.57;;;13.40;75.20;;;;;;4971384;28;20122;-86
2021/10/28 19:20:08;;;;;;;11.07;6.03;;;13.40;75.30;;;;;;4961837;28;20055;-86
2021/10/28 19:22:35;;;;;;;11.00;5.68;;;13.30;75.30;;;;;;4961218;28;20062;-85
2021/10/28 19:25:04;;;;;;;10.88;5.93;;;13.30;75.30;;;;;;4959413;28;20059;-85
2021/10/28 19:27:33;;;;;;;8.95;5.60;;;13.30;75.30;;;;;;4959929;28;20129;-84
2021/10/28 19:30:09;;;;;;;10.10;5.95;;;13.20;75.40;;;;;;4956555;28;20151;-85
2021/10/28 19:32:36;;;;;;;10.57;5.93;;;13.20;75.40;;;;;;4970810;28;20055;-85
2021/10/28 19:35:04;;;;;;;10.90;5.78;;;13.20;75.40;;;;;;4959337;28;20102;-85
2021/10/28 19:37:41;;;;;;;9.57;5.45;;;13.20;75.40;;;;;;4964489;28;20405;-85
2021/10/28 19:47:49;;;;;;;11.07;5.20;;;13.10;75.50;;;;;;4956445;28;20432;-86
2021/10/28 19:50:17;;;;;;;8.10;5.53;;;13.10;75.50;;;;;;4958283;28;20059;-85
2021/10/28 19:52:44;;;;;;;12.05;5.47;;;13.00;75.60;;;;;;4958129;28;20047;-85
2021/10/28 19:55:12;;;;;;;8.02;5.35;;;13.00;75.60;;;;;;4958686;28;20047;-86
2021/10/28 19:57:43;;;;;;;12.20;5.40;;;12.90;75.60;;;;;;4957557;28;20050;-86
2021/10/28 20:05:30;;;;;;;9.73;5.70;;;12.90;75.60;;;;;;4959324;28;20483;-85
2021/10/28 20:21:34;;;;;;;8.13;5.15;;;12.80;75.70;;;;;;4953062;28;20571;-86
2021/10/28 20:24:03;;;;;;;10.38;5.32;;;12.80;75.70;;;;;;4968193;28;20555;-86
2021/10/28 20:26:30;;;;;;;7.82;4.60;;;12.80;75.80;;;;;;4970288;28;20448;-87
2021/10/28 20:28:59;;;;;;;11.98;5.30;;;12.80;75.80;;;;;;4969642;28;20106;-86
2021/10/28 20:31:26;;;;;;;9.85;5.05;;;12.80;75.80;;;;;;4969210;28;20057;-87
2021/10/28 20:39:03;;;;;;;9.55;5.60;;;12.70;75.80;;;;;;4968379;28;20578;-85
2021/10/28 20:41:31;;;;;;;8.60;5.18;;;12.70;75.80;;;;;;4966101;28;20455;-86
2021/10/28 20:43:59;;;;;;;9.10;5.05;;;12.70;75.80;;;;;;4921839;28;1257979;-85
2021/10/28 20:46:26;;;;;;;7.75;4.57;;;12.60;75.80;;;;;;4970293;28;20039;-86
2021/10/28 20:48:54;;;;;;;13.35;4.88;;;12.70;75.80;;;;;;4967780;28;20431;-85
2021/10/28 20:51:22;;;;;;;12.95;4.93;;;12.60;75.80;;;;;;4955713;28;20428;-85
2021/10/28 20:53:49;;;;;;;7.93;4.38;;;12.60;75.80;;;;;;4956305;28;20051;-85
2021/10/28 20:56:17;;;;;;;10.95;5.00;;;12.60;75.80;;;;;;4959874;28;20047;-85
2021/10/28 20:58:45;;;;;;;7.70;4.72;;;12.60;75.80;;;;;;4959660;28;20055;-86
2021/10/28 21:01:13;;;;;;;8.30;4.95;;;12.60;75.80;;;;;;4958337;28;20047;-86
2021/10/28 21:03:41;;;;;;;9.30;4.95;;;12.60;75.80;;;;;;4957896;28;20142;-85
2021/10/28 21:06:08;;;;;;;9.60;4.13;;;12.60;75.80;;;;;;4953827;28;20482;-85
2021/10/28 21:08:35;;;;;;;8.65;4.60;;;12.60;75.80;;;;;;4962443;28;20051;-85
2021/10/28 21:11:02;;;;;;;10.85;5.13;;;12.60;75.80;;;;;;4964637;28;20058;-86
2021/10/28 21:13:29;;;;;;;8.40;4.70;;;12.50;75.80;;;;;;4962870;28;20039;-85
2021/10/28 21:15:56;;;;;;;11.07;5.05;;;12.60;75.70;;;;;;4959675;28;20057;-86
2021/10/28 21:18:23;;;;;;;10.93;4.70;;;12.50;75.70;;;;;;4955090;28;20047;-85
2021/10/28 21:20:55;;;;;;;6.32;4.45;;;12.60;75.70;;;;;;4955398;28;20059;-84
2021/10/28 21:23:22;;;;;;;7.93;5.10;;;12.60;75.70;;;;;;4957815;28;20051;-87
2021/10/28 21:25:49;;;;;;;7.70;5.00;;;12.50;75.60;;;;;;4959164;28;20055;-87
2021/10/28 21:28:16;;;;;;;10.52;4.78;;;12.50;75.60;;;;;;4957903;28;20050;-86
2021/10/28 21:30:44;;;;;;;7.43;5.00;;;12.60;75.60;;;;;;4958127;28;20554;-86
2021/10/28 21:33:14;;;;;;;7.45;4.82;;;12.50;75.60;;;;;;4953916;28;20463;-85
2021/10/28 21:35:41;;;;;;;8.00;5.15;;;12.50;75.60;;;;;;4956557;28;20059;-86
2021/10/28 21:38:16;;;;;;;7.20;4.72;;;12.50;75.60;;;;;;4971714;28;20047;-85
2021/10/28 21:40:43;;;;;;;8.20;4.72;;;12.50;75.60;;;;;;4960381;28;20531;-85
2021/10/28 21:43:12;;;;;;;7.75;4.72;;;12.50;75.60;;;;;;4957753;28;20048;-85
2021/10/28 21:45:40;;;;;;;10.45;4.90;;;12.50;75.60;;;;;;4957171;28;20058;-85
2021/10/28 21:48:07;;;;;;;8.50;4.65;;;12.50;75.50;;;;;;4952978;28;20059;-86
2021/10/28 21:50:36;;;;;;;7.40;4.75;;;12.40;75.50;;;;;;4957605;28;20059;-85
2021/10/28 21:53:09;;;;;;;7.95;4.05;;;12.40;75.50;;;;;;4957719;28;20059;-85
2021/10/28 22:26:07;;;;;;;10.30;4.88;;;12.30;75.70;;;;;;4829259;29;20087;-86
2021/10/28 22:28:34;;;;;;;8.32;5.00;;;12.30;75.70;;;;;;4829269;29;20100;-86
2021/10/28 22:31:01;;;;;;;10.40;4.72;;;12.30;75.70;;;;;;4829462;29;20056;-85
2021/10/28 22:33:28;;;;;;;7.72;5.13;;;12.30;75.70;;;;;;4827200;29;20196;-85
2021/10/28 22:36:06;;;;;;;9.82;4.82;;;12.30;75.70;;;;;;4824725;29;20103;-87
2021/10/28 22:38:34;;;;;;;9.35;4.80;;;12.30;75.70;;;;;;4826253;29;20053;-86
2021/10/28 22:41:02;;;;;;;11.15;5.18;;;12.30;75.70;;;;;;4829059;29;20540;-84
2021/10/28 22:43:29;;;;;;;10.68;5.15;;;12.30;75.70;;;;;;4832594;29;20061;-87
2021/10/28 22:45:56;;;;;;;10.50;4.95;;;12.30;75.70;;;;;;4832066;29;20065;-86